createdAt,value
2022-11-15T00:00:47.398Z,98327.44
2022-11-15T00:03:23.623Z,98322.78
2022-11-15T00:05:50.411Z,98312.53
2022-11-15T00:08:17.181Z,98320.19
2022-11-15T00:10:44.032Z,98316.91
2022-11-15T00:13:13.127Z,98316.59
2022-11-15T00:15:41.468Z,98306.03
2022-11-15T00:18:13.658Z,98309.53
2022-11-15T00:20:40.558Z,98304.06
2022-11-15T00:23:07.415Z,98290.06
2022-11-15T00:25:34.374Z,98291.03
2022-11-15T00:28:01.802Z,98293.66
2022-11-15T00:30:28.878Z,98288.59
2022-11-15T00:32:56.418Z,98280.56
2022-11-15T00:35:23.152Z,98277.22
2022-11-15T00:37:49.714Z,98280.44
2022-11-15T00:40:16.380Z,98280.28
2022-11-15T00:42:43.109Z,98284.69
2022-11-15T00:45:10.497Z,98284.38
2022-11-15T00:47:36.973Z,98289.38
2022-11-15T00:50:04.034Z,98292.63
2022-11-15T00:52:30.421Z,98283.47
2022-11-15T00:54:56.805Z,98287.84
2022-11-15T00:57:23.245Z,98275.97
2022-11-15T00:59:49.652Z,98277.28
2022-11-15T01:02:16.067Z,98286.03
2022-11-15T01:04:42.508Z,98285.72
2022-11-15T01:07:08.942Z,98288.81
2022-11-15T01:09:35.395Z,98289.84
2022-11-15T01:12:01.928Z,98275.56
2022-11-15T01:14:28.437Z,98275.41
2022-11-15T01:16:54.881Z,98267.44
2022-11-15T01:19:21.330Z,98263.50
2022-11-15T01:21:50.243Z,98263.44
2022-11-15T01:24:16.679Z,98261.56
2022-11-15T01:26:43.076Z,98240.81
2022-11-15T01:29:09.503Z,98244.66
2022-11-15T01:31:35.936Z,98238.81
2022-11-15T01:34:02.487Z,98242.47
2022-11-15T01:36:28.930Z,98241.50
2022-11-15T01:38:56.718Z,98247.69
2022-11-15T01:41:27.238Z,98250.19
2022-11-15T01:43:56.803Z,98243.69
2022-11-15T01:46:34.414Z,98245.81
2022-11-15T01:49:06.494Z,98249.19
2022-11-15T01:51:34.350Z,98256.22
2022-11-15T01:54:06.060Z,98246.88
2022-11-15T01:56:41.099Z,98251.66
2022-11-15T01:59:09.460Z,98241.41
2022-11-15T02:01:36.101Z,98245.00
2022-11-15T02:04:13.937Z,98245.31
2022-11-15T02:06:42.006Z,98239.16
2022-11-15T02:09:08.490Z,98236.63
2022-11-15T02:11:35.121Z,98234.06
2022-11-15T02:14:03.347Z,98230.75
2022-11-15T02:17:03.066Z,98225.63
2022-11-15T02:19:32.143Z,98210.03
2022-11-15T02:22:11.420Z,98222.84
2022-11-15T02:25:11.107Z,98212.94
2022-11-15T02:28:16.585Z,98218.19
2022-11-15T02:30:54.813Z,98223.88
2022-11-15T02:33:50.986Z,98212.13
2022-11-15T02:36:36.743Z,98211.06
2022-11-15T02:39:23.922Z,98209.53
2022-11-15T02:41:58.629Z,98200.59
2022-11-15T02:44:32.634Z,98203.81
2022-11-15T02:47:15.182Z,98201.31
2022-11-15T02:49:51.144Z,98202.19
2022-11-15T02:52:18.495Z,98197.47
2022-11-15T02:54:55.216Z,98193.25
2022-11-15T02:57:29.281Z,98191.63
2022-11-15T03:00:10.150Z,98191.16
2022-11-15T03:02:57.609Z,98196.63
2022-11-15T03:05:50.534Z,98197.81
2022-11-15T03:08:23.086Z,98198.13
2022-11-15T03:11:09.376Z,98191.72
2022-11-15T03:13:45.078Z,98184.91
2022-11-15T03:16:19.099Z,98178.41
2022-11-15T03:18:52.763Z,98176.94
2022-11-15T03:21:22.724Z,98172.94
2022-11-15T03:23:50.983Z,98172.94
2022-11-15T03:26:20.341Z,98182.38
2022-11-15T03:29:04.802Z,98172.63
2022-11-15T03:31:50.853Z,98180.16
2022-11-15T03:34:28.483Z,98163.66
2022-11-15T03:36:55.118Z,98166.44
2022-11-15T03:39:22.858Z,98162.53
2022-11-15T03:41:59.414Z,98164.81
2022-11-15T03:44:46.599Z,98157.81
2022-11-15T03:47:32.454Z,98161.34
2022-11-15T03:50:20.175Z,98166.13
2022-11-15T03:52:48.671Z,98167.91
2022-11-15T03:55:19.899Z,98159.03
2022-11-15T03:57:48.693Z,98163.19
2022-11-15T04:00:15.674Z,98158.03
2022-11-15T04:02:42.072Z,98152.56
2022-11-15T04:05:08.934Z,98155.56
2022-11-15T04:07:35.416Z,98162.38
2022-11-15T04:10:04.951Z,98162.22
2022-11-15T04:12:32.581Z,98157.66
2022-11-15T04:15:10.942Z,98159.53
2022-11-15T04:17:57.493Z,98150.00
2022-11-15T04:20:50.430Z,98152.13
2022-11-15T04:23:42.252Z,98154.72
2022-11-15T04:26:22.005Z,98168.69
2022-11-15T04:29:07.104Z,98165.31
2022-11-15T04:31:33.670Z,98166.13
2022-11-15T04:34:00.235Z,98164.28
2022-11-15T04:36:45.050Z,98159.63
2022-11-15T04:39:11.453Z,98166.38
2022-11-15T04:41:37.904Z,98164.34
2022-11-15T04:44:04.347Z,98164.91
2022-11-15T04:46:30.962Z,98161.69
2022-11-15T04:48:59.235Z,98159.81
2022-11-15T04:51:26.598Z,98157.59
2022-11-15T04:53:53.345Z,98160.66
2022-11-15T04:56:20.108Z,98152.84
2022-11-15T04:58:46.548Z,98144.47
2022-11-15T05:01:17.626Z,98148.28
2022-11-15T05:04:03.467Z,98146.75
2022-11-15T05:06:30.400Z,98146.59
2022-11-15T05:08:57.936Z,98140.25
2022-11-15T05:11:24.717Z,98147.84
2022-11-15T05:13:51.360Z,98150.31
2022-11-15T05:16:17.752Z,98144.47
2022-11-15T05:18:44.226Z,98131.88
2022-11-15T05:21:13.523Z,98137.19
2022-11-15T05:23:40.899Z,98136.59
2022-11-15T05:26:09.522Z,98137.34
2022-11-15T05:28:37.478Z,98135.25
2022-11-15T05:31:05.384Z,98131.81
2022-11-15T05:33:32.885Z,98129.53
2022-11-15T05:36:08.795Z,98134.81
2022-11-15T05:38:35.323Z,98127.53
2022-11-15T05:41:03.274Z,98125.81
2022-11-15T05:43:32.795Z,98119.47
2022-11-15T05:46:00.537Z,98120.44
2022-11-15T05:48:27.032Z,98111.34
2022-11-15T05:50:53.895Z,98111.91
2022-11-15T05:53:23.995Z,98110.00
2022-11-15T05:55:50.428Z,98112.09
2022-11-15T05:58:17.051Z,98110.69
2022-11-15T06:00:44.285Z,98113.94
2022-11-15T06:03:11.445Z,98110.22
2022-11-15T06:05:37.891Z,98115.22
2022-11-15T06:08:04.505Z,98118.00
2022-11-15T06:10:30.935Z,98110.69
2022-11-15T06:13:04.911Z,98105.50
2022-11-15T06:15:33.034Z,98107.09
2022-11-15T06:18:00.069Z,98106.63
2022-11-15T06:20:28.066Z,98100.38
2022-11-15T06:23:01.906Z,98105.97
2022-11-15T06:25:29.771Z,98099.06
2022-11-15T06:27:57.888Z,98097.13
2022-11-15T06:30:26.319Z,98107.59
2022-11-15T06:32:59.032Z,98107.91
2022-11-15T06:35:25.443Z,98104.00
2022-11-15T06:37:51.898Z,98108.06
2022-11-15T06:40:18.304Z,98103.19
2022-11-15T06:42:44.707Z,98109.25
2022-11-15T06:45:11.143Z,98105.34
2022-11-15T06:47:45.651Z,98102.22
2022-11-15T06:50:12.114Z,98104.09
2022-11-15T06:52:38.567Z,98111.34
2022-11-15T06:55:05.432Z,98113.22
2022-11-15T06:57:33.201Z,98122.06
2022-11-15T06:59:59.716Z,98116.06
2022-11-15T07:02:26.274Z,98116.84
2022-11-15T07:04:52.683Z,98112.41
2022-11-15T07:07:19.153Z,98111.81
2022-11-15T07:09:45.562Z,98119.47
2022-11-15T07:12:11.956Z,98113.75
2022-11-15T07:14:38.382Z,98108.41
2022-11-15T07:17:06.052Z,98105.50
2022-11-15T07:19:32.955Z,98111.19
2022-11-15T07:21:59.367Z,98104.91
2022-11-15T07:24:25.764Z,98113.13
2022-11-15T07:26:52.256Z,98103.31
2022-11-15T07:29:18.850Z,98103.31
2022-11-15T07:31:45.269Z,98102.97
2022-11-15T07:34:11.714Z,98101.34
2022-11-15T07:36:38.119Z,98100.78
2022-11-15T07:39:04.570Z,98108.19
2022-11-15T07:41:30.985Z,98101.09
2022-11-15T07:43:58.480Z,98102.50
2022-11-15T07:46:24.925Z,98106.72
2022-11-15T07:48:51.344Z,98110.22
2022-11-15T07:51:18.070Z,98103.56
2022-11-15T07:53:44.721Z,98104.34
2022-11-15T07:56:11.294Z,98113.22
2022-11-15T07:58:37.887Z,98115.41
2022-11-15T08:01:06.296Z,98112.66
2022-11-15T08:03:34.449Z,98118.91
2022-11-15T08:06:01.526Z,98116.72
2022-11-15T08:08:28.381Z,98124.03
2022-11-15T08:10:55.095Z,98119.06
2022-11-15T08:13:22.271Z,98120.44
2022-11-15T08:15:52.158Z,98115.66
2022-11-15T08:18:21.313Z,98108.75
2022-11-15T08:20:47.771Z,98107.44
2022-11-15T08:23:14.243Z,98103.69
2022-11-15T08:25:40.823Z,98098.19
2022-11-15T08:28:08.699Z,98091.94
2022-11-15T08:30:37.854Z,98084.47
2022-11-15T08:33:04.526Z,98086.34
2022-11-15T08:35:31.371Z,98086.50
2022-11-15T08:37:57.765Z,98081.72
2022-11-15T08:40:24.717Z,98079.50
2022-11-15T08:42:51.168Z,98081.53
2022-11-15T08:45:17.731Z,98077.38
2022-11-15T08:47:49.692Z,98078.22
2022-11-15T08:50:19.720Z,98077.88
2022-11-15T08:52:46.322Z,98075.19
2022-11-15T08:55:12.738Z,98071.22
2022-11-15T08:57:39.194Z,98066.34
2022-11-15T09:00:06.190Z,98073.00
2022-11-15T09:02:32.673Z,98075.75
2022-11-15T09:04:59.096Z,98059.09
2022-11-15T09:07:25.658Z,98063.25
2022-11-15T09:09:52.130Z,98051.47
2022-11-15T09:12:18.528Z,98058.28
2022-11-15T09:14:44.917Z,98042.69
2022-11-15T09:17:11.361Z,98055.53
2022-11-15T09:19:38.507Z,98049.59
2022-11-15T09:22:08.799Z,98055.13
2022-11-15T09:24:35.896Z,98047.97
2022-11-15T09:27:02.378Z,98045.22
2022-11-15T09:29:29.019Z,98051.16
2022-11-15T09:31:55.746Z,98057.63
2022-11-15T09:34:22.163Z,98047.97
2022-11-15T09:36:48.570Z,98058.53
2022-11-15T09:39:15.017Z,98064.72
2022-11-15T09:41:51.510Z,98059.84
2022-11-15T09:44:41.968Z,98060.22
2022-11-15T09:47:50.554Z,98056.59
2022-11-15T09:50:33.098Z,98045.03
2022-11-15T09:52:59.818Z,98039.66
2022-11-15T09:55:35.898Z,98037.22
2022-11-15T09:58:16.818Z,98042.59
2022-11-15T10:00:49.616Z,98029.72
2022-11-15T10:03:27.225Z,98018.50
2022-11-15T10:05:57.987Z,98029.25
2022-11-15T10:08:45.471Z,98022.03
2022-11-15T10:11:37.661Z,98013.41
2022-11-15T10:14:19.895Z,98012.34
2022-11-15T10:17:00.130Z,98008.94
2022-11-15T10:19:29.490Z,98005.25
2022-11-15T10:22:04.888Z,98004.50
2022-11-15T10:24:36.362Z,98000.38
2022-11-15T10:27:10.766Z,98002.03
2022-11-15T10:29:37.264Z,97998.00
2022-11-15T10:32:03.754Z,97994.59
2022-11-15T10:34:30.149Z,97988.47
2022-11-15T10:36:58.981Z,97987.66
2022-11-15T10:39:26.327Z,97987.22
2022-11-15T10:41:52.815Z,97988.59
2022-11-15T10:44:26.807Z,97980.78
2022-11-15T10:46:56.252Z,97971.16
2022-11-15T10:49:30.399Z,97963.66
2022-11-15T10:51:58.885Z,97953.75
2022-11-15T10:54:42.510Z,97956.66
2022-11-15T10:57:16.880Z,97947.91
2022-11-15T10:59:58.439Z,97937.75
2022-11-15T11:02:28.573Z,97932.38
2022-11-15T11:04:55.185Z,97939.47
2022-11-15T11:07:24.984Z,97924.19
2022-11-15T11:10:50.292Z,97926.69
2022-11-15T11:13:34.900Z,97915.97
2022-11-15T11:16:39.194Z,97915.69
2022-11-15T11:19:27.168Z,97905.59
2022-11-15T11:22:15.937Z,97899.97
2022-11-15T11:24:46.504Z,97893.59
2022-11-15T11:27:56.804Z,97892.34
2022-11-15T11:30:33.032Z,97871.91
2022-11-15T11:33:04.706Z,97873.53
2022-11-15T11:35:45.923Z,97867.13
2022-11-15T11:38:39.419Z,97859.41
2022-11-15T11:41:19.579Z,97855.72
2022-11-15T11:44:08.550Z,97851.66
2022-11-15T11:46:37.974Z,97840.38
2022-11-15T11:49:11.236Z,97844.94
2022-11-15T11:51:44.458Z,97836.03
2022-11-15T11:54:15.419Z,97838.47
2022-11-15T11:56:44.957Z,97832.28
2022-11-15T11:59:29.559Z,97829.09
2022-11-15T12:01:56.460Z,97828.56
2022-11-15T12:04:31.727Z,97817.75
2022-11-15T12:07:02.976Z,97806.69
2022-11-15T12:09:52.747Z,97806.94
2022-11-15T12:12:40.216Z,97790.53
2022-11-15T12:15:09.464Z,97798.84
2022-11-15T12:17:38.009Z,97795.09
2022-11-15T12:20:15.315Z,97794.59
2022-11-15T12:22:48.196Z,97795.41
2022-11-15T12:25:20.522Z,97799.44
2022-11-15T12:27:57.770Z,97795.41
2022-11-15T12:30:26.753Z,97795.13
2022-11-15T12:32:59.362Z,97786.75
2022-11-15T12:35:35.935Z,97780.88
2022-11-15T12:38:03.142Z,97784.91
2022-11-15T12:40:38.492Z,97783.59
2022-11-15T12:43:31.966Z,97779.03
2022-11-15T12:46:05.259Z,97776.34
2022-11-15T12:48:38.271Z,97772.59
2022-11-15T12:51:05.668Z,97772.31
2022-11-15T12:53:33.959Z,97766.41
2022-11-15T12:56:20.764Z,97765.91
2022-11-15T12:58:58.911Z,97758.66
2022-11-15T13:01:31.284Z,97751.38
2022-11-15T13:04:22.436Z,97731.78
2022-11-15T13:06:53.511Z,97733.63
2022-11-15T13:09:29.104Z,97729.59
2022-11-15T13:12:00.647Z,97726.63
2022-11-15T13:14:49.035Z,97717.22
2022-11-15T13:17:26.390Z,97718.53
2022-11-15T13:19:59.763Z,97712.63
2022-11-15T13:22:45.389Z,97711.81
2022-11-15T13:25:20.716Z,97712.06
2022-11-15T13:27:51.613Z,97713.41
2022-11-15T13:30:28.128Z,97707.78
2022-11-15T13:32:54.833Z,97704.81
2022-11-15T13:35:26.892Z,97701.88
2022-11-15T13:37:55.447Z,97705.59
2022-11-15T13:40:35.829Z,97700.00
2022-11-15T13:43:29.902Z,97699.47
2022-11-15T13:46:17.300Z,97696.78
2022-11-15T13:48:45.861Z,97685.22
2022-11-15T13:51:31.017Z,97683.88
2022-11-15T13:54:35.231Z,97678.50
2022-11-15T13:57:22.578Z,97668.81
2022-11-15T13:59:59.048Z,97674.72
2022-11-15T14:02:31.928Z,97669.34
2022-11-15T14:05:03.847Z,97673.63
2022-11-15T14:07:31.147Z,97658.03
2022-11-15T14:09:57.617Z,97662.88
2022-11-15T14:12:53.824Z,97644.03
2022-11-15T14:15:34.970Z,97620.38
2022-11-15T14:18:02.016Z,97625.19
2022-11-15T14:20:36.024Z,97627.88
2022-11-15T14:23:05.457Z,97624.09
2022-11-15T14:25:32.899Z,97628.41
2022-11-15T14:28:29.336Z,97621.41
2022-11-15T14:30:58.765Z,97628.41
2022-11-15T14:33:30.655Z,97615.75
2022-11-15T14:35:59.266Z,97625.19
2022-11-15T14:38:26.669Z,97620.34
2022-11-15T14:40:54.774Z,97619.56
2022-11-15T14:43:21.538Z,97611.47
2022-11-15T14:45:48.126Z,97607.19
2022-11-15T14:48:14.625Z,97605.28
2022-11-15T14:50:41.300Z,97607.97
2022-11-15T14:53:12.370Z,97599.38
2022-11-15T14:55:38.996Z,97594.28
2022-11-15T14:58:08.820Z,97586.22
2022-11-15T15:00:37.787Z,97587.00
2022-11-15T15:03:05.518Z,97580.31
2022-11-15T15:05:38.332Z,97577.34
2022-11-15T15:08:06.118Z,97564.16
2022-11-15T15:10:41.130Z,97566.59
2022-11-15T15:13:17.704Z,97559.06
2022-11-15T15:15:44.475Z,97549.38
2022-11-15T15:18:12.248Z,97555.28
2022-11-15T15:20:41.039Z,97549.66
2022-11-15T15:23:16.885Z,97538.09
2022-11-15T15:25:44.566Z,97541.31
2022-11-15T15:28:10.971Z,97545.91
2022-11-15T15:30:37.437Z,97539.97
2022-11-15T15:33:04.003Z,97531.38
2022-11-15T15:35:33.208Z,97533.78
2022-11-15T15:37:59.859Z,97527.34
2022-11-15T15:40:28.685Z,97541.06
2022-11-15T15:42:55.085Z,97537.56
2022-11-15T15:45:21.648Z,97535.94
2022-11-15T15:47:50.291Z,97534.34
2022-11-15T15:50:28.885Z,97534.06
2022-11-15T15:52:57.528Z,97528.41
2022-11-15T15:55:24.945Z,97522.50
2022-11-15T15:57:51.535Z,97508.81
2022-11-15T16:00:19.331Z,97510.94
2022-11-15T16:02:45.887Z,97510.66
2022-11-15T16:05:13.342Z,97505.84
2022-11-15T16:07:41.047Z,97499.41
2022-11-15T16:10:31.919Z,97501.00
2022-11-15T16:12:59.214Z,97494.53
2022-11-15T16:15:28.167Z,97502.88
2022-11-15T16:17:59.374Z,97497.50
2022-11-15T16:20:38.424Z,97498.84
2022-11-15T16:23:10.110Z,97504.22
2022-11-15T16:25:45.288Z,97520.91
2022-11-15T16:28:19.062Z,97513.91
2022-11-15T16:30:45.764Z,97513.91
2022-11-15T16:33:12.268Z,97516.03
2022-11-15T16:35:38.703Z,97525.97
2022-11-15T16:38:05.176Z,97518.75
2022-11-15T16:40:34.668Z,97505.03
2022-11-15T16:43:03.006Z,97496.72
2022-11-15T16:45:29.596Z,97502.59
2022-11-15T16:47:56.573Z,97499.13
2022-11-15T16:50:28.137Z,97485.41
2022-11-15T16:52:59.315Z,97479.25
2022-11-15T16:55:28.289Z,97468.75
2022-11-15T16:57:55.639Z,97466.06
2022-11-15T17:00:22.333Z,97473.31
2022-11-15T17:02:50.523Z,97462.56
2022-11-15T17:05:20.433Z,97477.91
2022-11-15T17:07:55.140Z,97471.97
2022-11-15T17:10:23.250Z,97473.06
2022-11-15T17:12:50.459Z,97472.50
2022-11-15T17:15:16.903Z,97473.88
2022-11-15T17:17:43.859Z,97476.28
2022-11-15T17:20:18.138Z,97468.50
2022-11-15T17:22:45.270Z,97462.84
2022-11-15T17:25:11.727Z,97476.81
2022-11-15T17:27:38.141Z,97456.94
2022-11-15T17:30:05.584Z,97460.97
2022-11-15T17:32:31.996Z,97455.31
2022-11-15T17:34:58.380Z,97451.28
2022-11-15T17:37:24.842Z,97446.72
2022-11-15T17:39:51.320Z,97448.59
2022-11-15T17:42:17.733Z,97442.41
2022-11-15T17:44:44.144Z,97434.09
2022-11-15T17:47:10.579Z,97444.84
2022-11-15T17:49:39.456Z,97437.03
2022-11-15T17:52:06.285Z,97439.75
2022-11-15T17:54:32.755Z,97437.06
2022-11-15T17:56:59.375Z,97429.53
2022-11-15T17:59:25.835Z,97442.41
2022-11-15T18:01:53.969Z,97445.13
2022-11-15T18:04:20.564Z,97444.56
2022-11-15T18:06:47.316Z,97451.03
2022-11-15T18:09:13.828Z,97462.31
2022-11-15T18:11:42.186Z,97454.78
2022-11-15T18:14:13.305Z,97459.63
2022-11-15T18:16:40.375Z,97458.81
2022-11-15T18:19:13.941Z,97450.75
2022-11-15T18:21:57.884Z,97455.53
2022-11-15T18:24:38.472Z,97468.72
2022-11-15T18:27:06.420Z,97463.34
2022-11-15T18:29:35.449Z,97460.16
2022-11-15T18:32:04.999Z,97458.81
2022-11-15T18:34:34.496Z,97460.69
2022-11-15T18:37:02.750Z,97455.31
2022-11-15T18:39:29.469Z,97450.22
2022-11-15T18:41:55.923Z,97441.88
2022-11-15T18:44:22.345Z,97445.63
2022-11-15T18:46:49.063Z,97439.19
2022-11-15T18:49:20.248Z,97431.13
2022-11-15T18:51:47.740Z,97441.88
2022-11-15T18:54:16.010Z,97438.09
2022-11-15T18:56:47.114Z,97447.47
2022-11-15T18:59:14.043Z,97447.72
2022-11-15T19:01:43.083Z,97443.69
2022-11-15T19:04:18.416Z,97440.75
2022-11-15T19:06:47.021Z,97438.06
2022-11-15T19:09:16.077Z,97447.47
2022-11-15T19:11:44.110Z,97440.53
2022-11-15T19:14:12.624Z,97438.13
2022-11-15T19:16:41.711Z,97433.28
2022-11-15T19:19:13.301Z,97420.38
2022-11-15T19:21:39.762Z,97420.38
2022-11-15T19:24:06.428Z,97426.84
2022-11-15T19:26:33.282Z,97419.31
2022-11-15T19:29:02.170Z,97416.09
2022-11-15T19:31:31.154Z,97412.06
2022-11-15T19:34:04.257Z,97412.88
2022-11-15T19:36:33.924Z,97410.16
2022-11-15T19:39:05.265Z,97414.22
2022-11-15T19:41:32.215Z,97410.19
2022-11-15T19:43:58.706Z,97413.69
2022-11-15T19:46:26.778Z,97414.47
2022-11-15T19:48:53.360Z,97409.66
2022-11-15T19:51:24.984Z,97404.28
2022-11-15T19:53:57.098Z,97397.28
2022-11-15T19:56:23.866Z,97385.72
2022-11-15T19:58:54.858Z,97401.06
2022-11-15T20:01:26.469Z,97396.50
2022-11-15T20:03:55.104Z,97392.72
2022-11-15T20:06:24.812Z,97395.69
2022-11-15T20:08:51.972Z,97405.91
2022-11-15T20:11:19.377Z,97403.47
2022-11-15T20:13:46.350Z,97400.50
2022-11-15T20:16:20.952Z,97406.44
2022-11-15T20:18:48.683Z,97398.63
2022-11-15T20:21:15.903Z,97404.28
2022-11-15T20:23:43.062Z,97412.88
2022-11-15T20:26:11.404Z,97423.91
2022-11-15T20:28:39.729Z,97429.25
2022-11-15T20:31:07.197Z,97427.13
2022-11-15T20:33:34.101Z,97414.19
2022-11-15T20:36:09.923Z,97418.22
2022-11-15T20:38:37.384Z,97421.16
2022-11-15T20:41:03.973Z,97415.53
2022-11-15T20:43:30.427Z,97417.16
2022-11-15T20:45:56.863Z,97416.09
2022-11-15T20:48:23.340Z,97409.63
2022-11-15T20:50:49.819Z,97405.88
2022-11-15T20:53:20.180Z,97401.84
2022-11-15T20:55:49.553Z,97400.50
2022-11-15T20:58:17.269Z,97378.22
2022-11-15T21:00:45.672Z,97390.28
2022-11-15T21:03:13.256Z,97391.09
2022-11-15T21:05:43.134Z,97384.06
2022-11-15T21:08:11.355Z,97393.75
2022-11-15T21:10:56.604Z,97398.28
2022-11-15T21:13:23.035Z,97391.31
2022-11-15T21:15:49.541Z,97387.59
2022-11-15T21:18:16.405Z,97391.34
2022-11-15T21:20:43.055Z,97387.56
2022-11-15T21:23:09.479Z,97380.03
2022-11-15T21:25:36.087Z,97375.75
2022-11-15T21:28:02.992Z,97365.81
2022-11-15T21:30:29.861Z,97365.81
2022-11-15T21:32:56.329Z,97363.94
2022-11-15T21:35:23.820Z,97362.84
2022-11-15T21:37:56.080Z,97363.66
2022-11-15T21:40:23.405Z,97355.84
2022-11-15T21:42:49.891Z,97348.63
2022-11-15T21:45:16.647Z,97352.13
2022-11-15T21:47:46.009Z,97340.84
2022-11-15T21:50:12.650Z,97351.81
2022-11-15T21:52:39.065Z,97348.88
2022-11-15T21:55:05.866Z,97339.22
2022-11-15T21:57:32.324Z,97326.03
2022-11-15T22:00:17.133Z,97322.28
2022-11-15T22:02:43.546Z,97308.63
2022-11-15T22:05:09.963Z,97310.22
2022-11-15T22:07:36.467Z,97301.38
2022-11-15T22:10:03.052Z,97301.38
2022-11-15T22:12:29.887Z,97302.19
2022-11-15T22:14:57.022Z,97312.38
2022-11-15T22:17:24.571Z,97313.97
2022-11-15T22:19:52.893Z,97312.63
2022-11-15T22:22:19.594Z,97312.91
2022-11-15T22:24:46.072Z,97305.91
2022-11-15T22:27:12.467Z,97294.66
2022-11-15T22:29:38.874Z,97293.06
2022-11-15T22:32:05.279Z,97297.34
2022-11-15T22:34:31.724Z,97300.00
2022-11-15T22:37:19.623Z,97302.16
2022-11-15T22:39:44.522Z,97299.75
2022-11-15T22:42:11.015Z,97291.72
2022-11-15T22:44:37.429Z,97292.50
2022-11-15T22:47:03.878Z,97286.59
2022-11-15T22:49:30.328Z,97305.38
2022-11-15T22:51:56.747Z,97301.06
2022-11-15T22:54:23.154Z,97305.66
2022-11-15T22:56:49.546Z,97306.44
2022-11-15T22:59:15.940Z,97317.47
2022-11-15T23:01:42.957Z,97326.28
2022-11-15T23:04:09.378Z,97314.75
2022-11-15T23:06:35.823Z,97324.44
2022-11-15T23:09:02.223Z,97329.28
2022-11-15T23:11:47.277Z,97331.16
2022-11-15T23:14:13.734Z,97333.56
2022-11-15T23:16:40.549Z,97330.13
2022-11-15T23:19:09.271Z,97329.53
2022-11-15T23:22:05.562Z,97326.88
2022-11-15T23:24:32.903Z,97327.66
2022-11-15T23:27:02.142Z,97316.41
2022-11-15T23:29:29.869Z,97322.59
2022-11-15T23:32:16.089Z,97317.72
2022-11-15T23:34:44.989Z,97317.19
2022-11-15T23:37:13.907Z,97318.81
2022-11-15T23:39:40.638Z,97320.41
2022-11-15T23:42:09.415Z,97318.28
2022-11-15T23:44:36.626Z,97318.28
2022-11-15T23:47:03.020Z,97311.28
2022-11-15T23:49:29.437Z,97310.75
2022-11-15T23:51:55.832Z,97306.97
2022-11-15T23:54:22.285Z,97317.75
2022-11-15T23:56:48.685Z,97318.28
2022-11-15T23:59:15.144Z,97305.94
